Bad Berka Airport EDOB

Flugplatz Daten

Name: Bad Berka Airport

Ident: EDOB

Lat: 50,90444565

Long: 11,26027775

Platzhöhe: 1001 ft

IataCode:

City: Bad Berka

Homepage: http://www.flugplatz-badberka.de/

Metar

2016/12/07 02:54
KORH 070254Z AUTO 02004KT 10SM OVC100 01/M03 A2997 RMK AO2 SLP158 LAST AUGMENTEDOBS T00111033 58004

Taf

Gewünschte Webcam nicht vorhanden? Dann fügen Sie eine hinzu. Sie wird dann so schnell wie möglich freigeschaltet
Url: Title: